Terminal Aerodrome Forecast
Issued by NWS Wilmington, OH

Current Version | Previous Version | Graphics & Text | Print | Product List | Glossary On
Versions: 1 2 3 4 5 6 7 8 9 10 11 12 13 14 15 16 17 18 19 20 21 22 23
260
FTUS41 KILN 172324
TAFDAY
TAF
KDAY 172324Z 1800/1824 22011G17KT P6SM FEW250
     FM180200 22008KT P6SM FEW250
     FM181300 21008KT P6SM BKN200=

USA.gov is the U.S. government's official web portal to all federal, state and local government web resources and services.